地図

経路データ

SID SEASON NUMBER BASIN SUBBASIN NAME ISO_TIME NATURE LAT LON WMO_WIND WMO_PRES WMO_AGENCY TRACK_TYPE DIST2LAND LANDFALL IFLAG USA_AGENCY USA_ATCF_ID USA_LAT USA_LON USA_RECORD USA_STATUS USA_WIND USA_PRES USA_SSHS USA_R34_NE USA_R34_SE USA_R34_SW USA_R34_NW USA_R50_NE USA_R50_SE USA_R50_SW USA_R50_NW USA_R64_NE USA_R64_SE USA_R64_SW USA_R64_NW USA_POCI USA_ROCI USA_RMW USA_EYE TOKYO_LAT TOKYO_LON TOKYO_GRADE TOKYO_WIND TOKYO_PRES TOKYO_R50_DIR TOKYO_R50_LONG TOKYO_R50_SHORT TOKYO_R30_DIR TOKYO_R30_LONG TOKYO_R30_SHORT TOKYO_LAND CMA_LAT CMA_LON CMA_CAT CMA_WIND CMA_PRES HKO_LAT HKO_LON HKO_CAT HKO_WIND HKO_PRES NEWDELHI_LAT NEWDELHI_LON NEWDELHI_GRADE NEWDELHI_WIND NEWDELHI_PRES NEWDELHI_CI NEWDELHI_DP NEWDELHI_POCI REUNION_LAT REUNION_LON REUNION_TYPE REUNION_WIND REUNION_PRES REUNION_TNUM REUNION_CI REUNION_RMW REUNION_R34_NE REUNION_R34_SE REUNION_R34_SW REUNION_R34_NW REUNION_R50_NE REUNION_R50_SE REUNION_R50_SW REUNION_R50_NW REUNION_R64_NE REUNION_R64_SE REUNION_R64_SW REUNION_R64_NW BOM_LAT BOM_LON BOM_TYPE BOM_WIND BOM_PRES BOM_TNUM BOM_CI BOM_RMW BOM_R34_NE BOM_R34_SE BOM_R34_SW BOM_R34_NW BOM_R50_NE BOM_R50_SE BOM_R50_SW BOM_R50_NW BOM_R64_NE BOM_R64_SE BOM_R64_SW BOM_R64_NW BOM_ROCI BOM_POCI BOM_EYE BOM_POS_METHOD BOM_PRES_METHOD NADI_LAT NADI_LON NADI_CAT NADI_WIND NADI_PRES WELLINGTON_LAT WELLINGTON_LON WELLINGTON_WIND WELLINGTON_PRES DS824_LAT DS824_LON DS824_STAGE DS824_WIND DS824_PRES TD9636_LAT TD9636_LON TD9636_STAGE TD9636_WIND TD9636_PRES TD9635_LAT TD9635_LON TD9635_WIND TD9635_PRES TD9635_ROCI NEUMANN_LAT NEUMANN_LON NEUMANN_CLASS NEUMANN_WIND NEUMANN_PRES MLC_LAT MLC_LON MLC_CLASS MLC_WIND MLC_PRES USA_GUST BOM_GUST BOM_GUST_PER REUNION_GUST REUNION_GUST_PER USA_SEAHGT USA_SEARAD_NE USA_SEARAD_SE USA_SEARAD_SW USA_SEARAD_NW STORM_SPEED STORM_DIR
1997152N10265 1997 35 EP MM ANDRES 1997-06-01 00:00:00 TS 10.4000 -95.4000 25 1009 hurdat_epa main 575 575 O_____________ hurdat_epa EP011997 10.4000 -95.4000 TD 25 1009 -1 1 312
1997152N10265 1997 35 EP MM ANDRES 1997-06-01 03:00:00 TS 10.4375 -95.4375 main 575 573 P_____________ EP011997 10.4375 -95.4375 TD 25 1008 -1 1 317
1997152N10265 1997 35 EP MM ANDRES 1997-06-01 06:00:00 TS 10.5000 -95.5000 25 1008 hurdat_epa main 573 570 O_____________ hurdat_epa EP011997 10.5000 -95.5000 TD 25 1008 -1 2 316
1997152N10265 1997 35 EP MM ANDRES 1997-06-01 09:00:00 TS 10.6000 -95.6000 main 570 557 P_____________ EP011997 10.6000 -95.6000 TD 27 1007 -1 3 315
1997152N10265 1997 35 EP MM ANDRES 1997-06-01 12:00:00 TS 10.7000 -95.7000 30 1007 hurdat_epa main 557 557 O_____________ hurdat_epa EP011997 10.7000 -95.7000 TD 30 1007 -1 2 316
1997152N10265 1997 35 EP MM ANDRES 1997-06-01 15:00:00 TS 10.7500 -95.7500 main 555 544 P_____________ EP011997 10.7500 -95.7500 TD 30 1006 -1 1 317
1997152N10265 1997 35 EP MM ANDRES 1997-06-01 18:00:00 TS 10.8000 -95.8000 30 1006 hurdat_epa main 544 531 O_____________ hurdat_epa EP011997 10.8000 -95.8000 TD 30 1006 -1 2 315
1997152N10265 1997 35 EP MM ANDRES 1997-06-01 21:00:00 TS 10.8925 -95.8925 main 531 519 P_____________ EP011997 10.8925 -95.8925 TD 30 1005 -1 3 315
1997152N10265 1997 35 EP MM ANDRES 1997-06-02 00:00:00 TS 11.0000 -96.0000 30 1005 hurdat_epa main 519 506 O_____________ hurdat_epa EP011997 11.0000 -96.0000 TD 30 1005 -1 3 314
1997152N10265 1997 35 EP MM ANDRES 1997-06-02 03:00:00 TS 11.1000 -96.1075 main 506 494 P_____________ EP011997 11.1000 -96.1075 TD 30 1005 -1 3 315
1997152N10265 1997 35 EP MM ANDRES 1997-06-02 06:00:00 TS 11.2000 -96.2000 30 1005 hurdat_epa main 494 483 O_____________ hurdat_epa EP011997 11.2000 -96.2000 TD 30 1005 -1 2 324
1997152N10265 1997 35 EP MM ANDRES 1997-06-02 09:00:00 TS 11.2700 -96.2351 main 483 471 P_____________ EP011997 11.2700 -96.2351 TD 32 1005 -1 2 333
1997152N10265 1997 35 EP MM ANDRES 1997-06-02 12:00:00 TS 11.4000 -96.3000 35 1005 hurdat_epa main 471 447 O_____________ hurdat_epa EP011997 11.4000 -96.3000 TS 35 1005 0 4 327
1997152N10265 1997 35 EP MM ANDRES 1997-06-02 15:00:00 TS 11.6400 -96.4775 main 447 403 P_____________ EP011997 11.6400 -96.4775 TS 35 1005 0 7 327
1997152N10265 1997 35 EP MM ANDRES 1997-06-02 18:00:00 TS 12.0000 -96.7000 35 1005 hurdat_epa main 403 348 O_____________ hurdat_epa EP011997 12.0000 -96.7000 TS 35 1005 0 10 334
1997152N10265 1997 35 EP MM ANDRES 1997-06-02 21:00:00 TS 12.5000 -96.9149 main 348 296 P_____________ EP011997 12.5000 -96.9149 TS 35 1005 0 11 339
1997152N10265 1997 35 EP MM ANDRES 1997-06-03 00:00:00 TS 13.0000 -97.1000 35 1005 hurdat_epa main 296 265 O_____________ hurdat_epa EP011997 13.0000 -97.1000 TS 35 1005 0 9 339
1997152N10265 1997 35 EP MM ANDRES 1997-06-03 03:00:00 TS 13.3375 -97.2450 main 265 236 P_____________ EP011997 13.3375 -97.2450 TS 35 1005 0 6 342
1997152N10265 1997 35 EP MM ANDRES 1997-06-03 06:00:00 TS 13.6000 -97.3000 35 1005 hurdat_epa main 236 204 O_____________ hurdat_epa EP011997 13.6000 -97.3000 TS 35 1005 0 5 355
1997152N10265 1997 35 EP MM ANDRES 1997-06-03 09:00:00 TS 13.8723 -97.2900 main 204 176 P_____________ EP011997 13.8723 -97.2900 TS 35 1004 0 5 21
1997152N10265 1997 35 EP MM ANDRES 1997-06-03 12:00:00 TS 14.1000 -97.1000 35 1004 hurdat_epa main 176 145 O_____________ hurdat_epa EP011997 14.1000 -97.1000 TS 35 1004 0 7 57
1997152N10265 1997 35 EP MM ANDRES 1997-06-03 15:00:00 TS 14.2727 -96.6601 main 145 138 P_____________ EP011997 14.2727 -96.6601 TS 37 1003 0 10 73
1997152N10265 1997 35 EP MM ANDRES 1997-06-03 18:00:00 TS 14.4000 -96.1000 40 1002 hurdat_epa main 144 138 O_____________ hurdat_epa EP011997 14.4000 -96.1000 TS 40 1002 0 11 77
1997152N10265 1997 35 EP MM ANDRES 1997-06-03 21:00:00 TS 14.5074 -95.5924 main 148 148 P_____________ EP011997 14.5074 -95.5924 TS 42 1001 0 10 78
1997152N10265 1997 35 EP MM ANDRES 1997-06-04 00:00:00 TS 14.6000 -95.1000 45 1001 hurdat_epa main 159 155 O_____________ hurdat_epa EP011997 14.6000 -95.1000 TS 45 1001 0 10 78
1997152N10265 1997 35 EP MM ANDRES 1997-06-04 03:00:00 TS 14.7150 -94.6051 main 159 131 P_____________ EP011997 14.7150 -94.6051 TS 45 1000 0 9 77
1997152N10265 1997 35 EP MM ANDRES 1997-06-04 06:00:00 TS 14.8000 -94.2000 45 1000 hurdat_epa main 131 116 O_____________ hurdat_epa EP011997 14.8000 -94.2000 TS 45 1000 0 6 80
1997152N10265 1997 35 EP MM ANDRES 1997-06-04 09:00:00 TS 14.8224 -93.9549 main 116 100 P_____________ EP011997 14.8224 -93.9549 TS 45 999 0 4 90
1997152N10265 1997 35 EP MM ANDRES 1997-06-04 12:00:00 TS 14.8000 -93.8000 45 999 hurdat_epa main 100 93 O_____________ hurdat_epa EP011997 14.8000 -93.8000 TS 45 999 0 3 101
1997152N10265 1997 35 EP MM ANDRES 1997-06-04 15:00:00 TS 14.7649 -93.6575 main 93 85 P_____________ EP011997 14.7649 -93.6575 TS 45 998 0 3 109
1997152N10265 1997 35 EP MM ANDRES 1997-06-04 18:00:00 TS 14.7000 -93.5000 45 998 hurdat_epa main 85 77 O_____________ hurdat_epa EP011997 14.7000 -93.5000 TS 45 998 0 4 111
1997152N10265 1997 35 EP MM ANDRES 1997-06-04 21:00:00 TS 14.6225 -93.2726 main 77 62 P_____________ EP011997 14.6225 -93.2726 TS 45 998 0 5 112
1997152N10265 1997 35 EP MM ANDRES 1997-06-05 00:00:00 TS 14.5000 -93.0000 45 999 hurdat_epa main 62 46 O_____________ hurdat_epa EP011997 14.5000 -93.0000 TS 45 999 0 6 118
1997152N10265 1997 35 EP MM ANDRES 1997-06-05 03:00:00 TS 14.3300 -92.7075 main 54 46 P_____________ EP011997 14.3300 -92.7075 TS 45 999 0 7 125
1997152N10265 1997 35 EP MM ANDRES 1997-06-05 06:00:00 TS 14.1000 -92.4000 45 1000 hurdat_epa main 49 46 O_____________ hurdat_epa EP011997 14.1000 -92.4000 TS 45 1000 0 8 131
1997152N10265 1997 35 EP MM ANDRES 1997-06-05 09:00:00 TS 13.8150 -92.1000 main 55 49 P_____________ EP011997 13.8150 -92.1000 TS 42 1000 0 8 136
1997152N10265 1997 35 EP MM ANDRES 1997-06-05 12:00:00 TS 13.5000 -91.8000 40 1000 hurdat_epa main 70 70 O_____________ hurdat_epa EP011997 13.5000 -91.8000 TS 40 1000 0 8 138
1997152N10265 1997 35 EP MM ANDRES 1997-06-05 15:00:00 TS 13.1924 -91.5226 main 81 81 P_____________ EP011997 13.1924 -91.5226 TS 37 1000 0 8 136
1997152N10265 1997 35 EP MM ANDRES 1997-06-05 18:00:00 TS 12.9000 -91.2000 35 1001 hurdat_epa main 111 111 O_____________ hurdat_epa EP011997 12.9000 -91.2000 TS 35 1001 0 9 127
1997152N10265 1997 35 EP MM ANDRES 1997-06-05 21:00:00 TS 12.6351 -90.7575 main 145 129 P_____________ EP011997 12.6351 -90.7575 TS 35 1001 0 10 120
1997152N10265 1997 35 EP MM ANDRES 1997-06-06 00:00:00 TS 12.4000 -90.3000 35 1001 hurdat_epa main 134 130 O_____________ hurdat_epa EP011997 12.4000 -90.3000 TS 35 1001 0 9 120
1997152N10265 1997 35 EP MM ANDRES 1997-06-06 03:00:00 TS 12.1624 -89.9200 main 145 145 P_____________ EP011997 12.1624 -89.9200 TS 32 1001 -1 8 120
1997152N10265 1997 35 EP MM ANDRES 1997-06-06 06:00:00 TS 12.0000 -89.6000 30 1002 hurdat_epa main 160 149 O_____________ hurdat_epa EP011997 12.0000 -89.6000 TD 30 1002 -1 6 110
1997152N10265 1997 35 EP MM ANDRES 1997-06-06 09:00:00 TS 11.9475 -89.3201 main 155 138 P_____________ EP011997 11.9475 -89.3201 TD 30 1002 -1 5 90
1997152N10265 1997 35 EP MM ANDRES 1997-06-06 12:00:00 TS 12.0000 -89.1000 30 1002 hurdat_epa main 138 123 O_____________ hurdat_epa EP011997 12.0000 -89.1000 TD 30 1002 -1 4 69
1997152N10265 1997 35 EP MM ANDRES 1997-06-06 15:00:00 TS 12.0975 -88.9125 main 123 100 P_____________ EP011997 12.0975 -88.9125 TD 30 1002 -1 4 44
1997152N10265 1997 35 EP MM ANDRES 1997-06-06 18:00:00 TS 12.3000 -88.8000 30 1003 hurdat_epa main 100 67 O_____________ hurdat_epa EP011997 12.3000 -88.8000 TD 30 1003 -1 5 15
1997152N10265 1997 35 EP MM ANDRES 1997-06-06 21:00:00 TS 12.5831 -88.7831 main 67 22 P_____________ EP011997 12.5585 -88.7820 TD 27 1003 -1 7 0
1997152N10265 1997 35 EP MM ANDRES 1997-06-07 00:00:00 TS 13.0000 -88.8000 25 1003 hurdat_epa main 22 0 O_____________ hurdat_epa EP011997 13.0000 -88.8000 TD 25 1003 -1 9 0
1997152N10265 1997 35 EP MM ANDRES 1997-06-07 01:00:00 TS 13.1541 -88.7972 25 1003 hurdat_epa main 0 0 O_____________ hurdat_epa EP011997 13.2000 -88.8000 L TD 25 1003 -1 7 7
1997152N10265 1997 35 EP MM ANDRES 1997-06-07 03:00:00 NR 13.3600 -88.7676 main 0 0 P_____________ EP011997 13.4853 -88.7761 23 7 10
1997152N10265 1997 35 EP MM ANDRES 1997-06-07 06:00:00 NR 13.7000 -88.7000 main 0 O_____________ jtwc_ep EP011997 13.7000 -88.7000 20 7 12

IBTrACS Databaseについて

本データベースは、米国NOAAが公開する1842年以降の世界の熱帯低気圧のベストトラックデータアーカイブInternational Best Track Archive for Climate Stewardship (IBTrACS)を、ウェブで閲覧しやすい形式に変換したものです。

最終更新日:2021-10-08